sensor_id;sensor_type;location;lat;lon;timestamp;temperature;humidity
11908;DHT22;6014;47.690;9.130;2023-12-22T00:00:13;8.70;99.90
11908;DHT22;6014;47.690;9.130;2023-12-22T00:02:41;8.70;99.90
11908;DHT22;6014;47.690;9.130;2023-12-22T00:05:09;8.70;99.90
11908;DHT22;6014;47.690;9.130;2023-12-22T00:07:39;8.70;99.90
11908;DHT22;6014;47.690;9.130;2023-12-22T00:10:08;8.70;99.90
11908;DHT22;6014;47.690;9.130;2023-12-22T00:12:37;8.70;99.90
11908;DHT22;6014;47.690;9.130;2023-12-22T00:15:06;8.70;99.90
11908;DHT22;6014;47.690;9.130;2023-12-22T00:17:34;8.70;99.90
11908;DHT22;6014;47.690;9.130;2023-12-22T00:20:03;8.60;99.90
11908;DHT22;6014;47.690;9.130;2023-12-22T00:22:32;8.60;99.90
11908;DHT22;6014;47.690;9.130;2023-12-22T00:25:02;8.60;99.90
11908;DHT22;6014;47.690;9.130;2023-12-22T00:27:31;8.50;99.90
11908;DHT22;6014;47.690;9.130;2023-12-22T00:29:59;8.50;99.90
11908;DHT22;6014;47.690;9.130;2023-12-22T00:32:27;8.30;99.90
11908;DHT22;6014;47.690;9.130;2023-12-22T00:34:56;8.10;99.90
11908;DHT22;6014;47.690;9.130;2023-12-22T00:37:25;8.00;99.90
11908;DHT22;6014;47.690;9.130;2023-12-22T00:39:53;7.90;99.90
11908;DHT22;6014;47.690;9.130;2023-12-22T00:42:25;7.80;99.90
11908;DHT22;6014;47.690;9.130;2023-12-22T00:44:53;7.80;99.90
11908;DHT22;6014;47.690;9.130;2023-12-22T00:47:21;7.60;99.90
11908;DHT22;6014;47.690;9.130;2023-12-22T00:49:50;7.60;99.90
11908;DHT22;6014;47.690;9.130;2023-12-22T00:52:18;7.50;99.90
11908;DHT22;6014;47.690;9.130;2023-12-22T00:54:46;7.60;99.90
11908;DHT22;6014;47.690;9.130;2023-12-22T00:57:14;7.50;99.90
11908;DHT22;6014;47.690;9.130;2023-12-22T00:59:44;7.60;99.90
11908;DHT22;6014;47.690;9.130;2023-12-22T01:02:14;7.90;99.90
11908;DHT22;6014;47.690;9.130;2023-12-22T01:04:43;7.80;99.90
11908;DHT22;6014;47.690;9.130;2023-12-22T01:07:12;7.90;99.90
11908;DHT22;6014;47.690;9.130;2023-12-22T01:09:42;7.80;99.90
11908;DHT22;6014;47.690;9.130;2023-12-22T01:12:10;7.90;99.90
11908;DHT22;6014;47.690;9.130;2023-12-22T01:14:38;7.80;99.90
11908;DHT22;6014;47.690;9.130;2023-12-22T01:17:08;7.90;99.90
11908;DHT22;6014;47.690;9.130;2023-12-22T01:19:36;7.80;99.90
11908;DHT22;6014;47.690;9.130;2023-12-22T01:22:05;7.80;99.90
11908;DHT22;6014;47.690;9.130;2023-12-22T01:24:33;7.70;99.90
11908;DHT22;6014;47.690;9.130;2023-12-22T01:27:06;7.70;99.90
11908;DHT22;6014;47.690;9.130;2023-12-22T01:29:34;7.70;99.90
11908;DHT22;6014;47.690;9.130;2023-12-22T01:32:03;7.70;99.90
11908;DHT22;6014;47.690;9.130;2023-12-22T01:34:33;7.70;99.90
11908;DHT22;6014;47.690;9.130;2023-12-22T01:37:02;7.70;99.90
11908;DHT22;6014;47.690;9.130;2023-12-22T01:39:30;7.60;99.90
11908;DHT22;6014;47.690;9.130;2023-12-22T01:41:58;7.70;99.90
11908;DHT22;6014;47.690;9.130;2023-12-22T01:44:26;7.60;99.90
11908;DHT22;6014;47.690;9.130;2023-12-22T01:46:55;7.60;99.90
11908;DHT22;6014;47.690;9.130;2023-12-22T01:49:23;7.60;99.90
11908;DHT22;6014;47.690;9.130;2023-12-22T01:51:54;7.60;99.90
11908;DHT22;6014;47.690;9.130;2023-12-22T01:54:22;7.60;99.90
11908;DHT22;6014;47.690;9.130;2023-12-22T01:56:50;7.60;99.90
11908;DHT22;6014;47.690;9.130;2023-12-22T01:59:19;7.60;99.90
11908;DHT22;6014;47.690;9.130;2023-12-22T02:01:47;7.60;99.90
11908;DHT22;6014;47.690;9.130;2023-12-22T02:04:15;7.60;99.90
11908;DHT22;6014;47.690;9.130;2023-12-22T02:06:44;7.60;99.90
11908;DHT22;6014;47.690;9.130;2023-12-22T02:09:13;7.70;99.90
11908;DHT22;6014;47.690;9.130;2023-12-22T02:11:42;7.60;99.90
11908;DHT22;6014;47.690;9.130;2023-12-22T02:14:10;7.60;99.90
11908;DHT22;6014;47.690;9.130;2023-12-22T02:16:41;7.50;99.90
11908;DHT22;6014;47.690;9.130;2023-12-22T02:19:25;7.40;99.90
11908;DHT22;6014;47.690;9.130;2023-12-22T02:22:00;7.30;99.90
11908;DHT22;6014;47.690;9.130;2023-12-22T02:24:36;7.40;99.90
11908;DHT22;6014;47.690;9.130;2023-12-22T02:27:05;7.30;99.90
11908;DHT22;6014;47.690;9.130;2023-12-22T02:29:38;7.30;99.90
11908;DHT22;6014;47.690;9.130;2023-12-22T02:32:21;7.30;99.90
11908;DHT22;6014;47.690;9.130;2023-12-22T02:34:53;7.20;99.90
11908;DHT22;6014;47.690;9.130;2023-12-22T02:37:23;7.20;99.90
11908;DHT22;6014;47.690;9.130;2023-12-22T02:39:53;7.20;99.90
11908;DHT22;6014;47.690;9.130;2023-12-22T02:42:22;7.20;99.90
11908;DHT22;6014;47.690;9.130;2023-12-22T02:44:57;7.30;99.90
11908;DHT22;6014;47.690;9.130;2023-12-22T02:47:26;7.20;99.90
11908;DHT22;6014;47.690;9.130;2023-12-22T02:49:55;7.20;99.90
11908;DHT22;6014;47.690;9.130;2023-12-22T02:52:23;7.20;99.90
11908;DHT22;6014;47.690;9.130;2023-12-22T02:54:53;7.10;99.90
11908;DHT22;6014;47.690;9.130;2023-12-22T02:57:21;7.10;99.90
11908;DHT22;6014;47.690;9.130;2023-12-22T02:59:50;7.20;99.90
11908;DHT22;6014;47.690;9.130;2023-12-22T03:02:18;7.10;99.90
11908;DHT22;6014;47.690;9.130;2023-12-22T03:04:46;7.20;99.90
11908;DHT22;6014;47.690;9.130;2023-12-22T03:07:15;7.30;99.90
11908;DHT22;6014;47.690;9.130;2023-12-22T03:09:43;7.40;99.90
11908;DHT22;6014;47.690;9.130;2023-12-22T03:12:13;7.30;99.90
11908;DHT22;6014;47.690;9.130;2023-12-22T03:14:42;7.30;99.90
11908;DHT22;6014;47.690;9.130;2023-12-22T03:17:10;7.40;99.90
11908;DHT22;6014;47.690;9.130;2023-12-22T03:19:39;7.40;99.90
11908;DHT22;6014;47.690;9.130;2023-12-22T03:22:08;7.50;99.90
11908;DHT22;6014;47.690;9.130;2023-12-22T03:24:36;7.50;99.90
11908;DHT22;6014;47.690;9.130;2023-12-22T03:27:05;7.40;99.90
11908;DHT22;6014;47.690;9.130;2023-12-22T03:29:35;7.50;99.90
11908;DHT22;6014;47.690;9.130;2023-12-22T03:32:04;7.40;99.90
11908;DHT22;6014;47.690;9.130;2023-12-22T03:34:32;7.40;99.90
11908;DHT22;6014;47.690;9.130;2023-12-22T03:37:01;7.30;99.90
11908;DHT22;6014;47.690;9.130;2023-12-22T03:39:29;7.30;99.90
11908;DHT22;6014;47.690;9.130;2023-12-22T03:41:57;7.20;99.90
11908;DHT22;6014;47.690;9.130;2023-12-22T03:44:26;7.00;99.90
11908;DHT22;6014;47.690;9.130;2023-12-22T03:46:55;7.00;99.90
11908;DHT22;6014;47.690;9.130;2023-12-22T03:49:24;7.00;99.90
11908;DHT22;6014;47.690;9.130;2023-12-22T03:51:52;7.00;99.90
11908;DHT22;6014;47.690;9.130;2023-12-22T03:54:20;6.90;99.90
11908;DHT22;6014;47.690;9.130;2023-12-22T03:56:48;6.90;99.90
11908;DHT22;6014;47.690;9.130;2023-12-22T03:59:17;6.90;99.90
11908;DHT22;6014;47.690;9.130;2023-12-22T04:01:50;7.00;99.90
11908;DHT22;6014;47.690;9.130;2023-12-22T04:04:21;7.00;99.90
11908;DHT22;6014;47.690;9.130;2023-12-22T04:06:50;7.10;99.90
11908;DHT22;6014;47.690;9.130;2023-12-22T04:09:18;7.20;99.90
11908;DHT22;6014;47.690;9.130;2023-12-22T04:11:46;7.30;99.90
11908;DHT22;6014;47.690;9.130;2023-12-22T04:14:15;7.30;99.90
11908;DHT22;6014;47.690;9.130;2023-12-22T04:16:45;7.30;99.90
11908;DHT22;6014;47.690;9.130;2023-12-22T04:19:14;7.40;99.90
11908;DHT22;6014;47.690;9.130;2023-12-22T04:21:43;7.30;99.90
11908;DHT22;6014;47.690;9.130;2023-12-22T04:24:14;7.40;99.90
11908;DHT22;6014;47.690;9.130;2023-12-22T04:26:42;7.50;99.90
11908;DHT22;6014;47.690;9.130;2023-12-22T04:29:10;7.40;99.90
11908;DHT22;6014;47.690;9.130;2023-12-22T04:31:38;7.50;99.90
11908;DHT22;6014;47.690;9.130;2023-12-22T04:34:07;7.50;99.90
11908;DHT22;6014;47.690;9.130;2023-12-22T04:36:36;7.40;99.90
11908;DHT22;6014;47.690;9.130;2023-12-22T04:39:06;7.50;99.90
11908;DHT22;6014;47.690;9.130;2023-12-22T04:41:34;7.40;99.90
11908;DHT22;6014;47.690;9.130;2023-12-22T04:44:02;7.30;99.90
11908;DHT22;6014;47.690;9.130;2023-12-22T04:46:30;7.40;99.90
11908;DHT22;6014;47.690;9.130;2023-12-22T04:48:59;7.50;99.90
11908;DHT22;6014;47.690;9.130;2023-12-22T04:51:28;7.30;99.90
11908;DHT22;6014;47.690;9.130;2023-12-22T04:53:57;7.50;99.90
11908;DHT22;6014;47.690;9.130;2023-12-22T04:56:26;7.50;99.90
11908;DHT22;6014;47.690;9.130;2023-12-22T04:58:54;7.50;99.90
11908;DHT22;6014;47.690;9.130;2023-12-22T05:01:23;7.60;99.90
11908;DHT22;6014;47.690;9.130;2023-12-22T05:03:51;7.60;99.90
11908;DHT22;6014;47.690;9.130;2023-12-22T05:06:20;7.70;99.90
11908;DHT22;6014;47.690;9.130;2023-12-22T05:08:48;7.60;99.90
11908;DHT22;6014;47.690;9.130;2023-12-22T05:11:17;7.60;99.90
11908;DHT22;6014;47.690;9.130;2023-12-22T05:13:46;7.60;99.90
11908;DHT22;6014;47.690;9.130;2023-12-22T05:16:15;7.60;99.90
11908;DHT22;6014;47.690;9.130;2023-12-22T05:18:43;7.60;99.90
11908;DHT22;6014;47.690;9.130;2023-12-22T05:21:12;7.60;99.90
11908;DHT22;6014;47.690;9.130;2023-12-22T05:23:42;7.60;99.90
11908;DHT22;6014;47.690;9.130;2023-12-22T05:26:21;7.60;99.90
11908;DHT22;6014;47.690;9.130;2023-12-22T05:28:51;7.60;99.90
11908;DHT22;6014;47.690;9.130;2023-12-22T05:31:19;7.60;99.90
11908;DHT22;6014;47.690;9.130;2023-12-22T05:33:47;7.60;99.90
11908;DHT22;6014;47.690;9.130;2023-12-22T05:36:15;7.60;99.90
11908;DHT22;6014;47.690;9.130;2023-12-22T05:38:44;7.60;99.90
11908;DHT22;6014;47.690;9.130;2023-12-22T05:41:13;7.60;99.90
11908;DHT22;6014;47.690;9.130;2023-12-22T05:43:41;7.50;99.90
11908;DHT22;6014;47.690;9.130;2023-12-22T05:46:11;7.50;99.90
11908;DHT22;6014;47.690;9.130;2023-12-22T05:48:41;7.50;99.90
11908;DHT22;6014;47.690;9.130;2023-12-22T05:51:09;7.50;99.90
11908;DHT22;6014;47.690;9.130;2023-12-22T05:53:40;7.60;99.90
11908;DHT22;6014;47.690;9.130;2023-12-22T05:56:19;7.60;99.90
11908;DHT22;6014;47.690;9.130;2023-12-22T05:58:54;7.60;99.90
11908;DHT22;6014;47.690;9.130;2023-12-22T06:01:26;7.50;99.90
11908;DHT22;6014;47.690;9.130;2023-12-22T06:03:54;7.40;99.90
11908;DHT22;6014;47.690;9.130;2023-12-22T06:06:22;7.50;99.90
11908;DHT22;6014;47.690;9.130;2023-12-22T06:08:51;7.50;99.90
11908;DHT22;6014;47.690;9.130;2023-12-22T06:11:19;7.50;99.90
11908;DHT22;6014;47.690;9.130;2023-12-22T06:13:48;7.60;99.90
11908;DHT22;6014;47.690;9.130;2023-12-22T06:16:17;7.60;99.90
11908;DHT22;6014;47.690;9.130;2023-12-22T06:18:47;7.60;99.90
11908;DHT22;6014;47.690;9.130;2023-12-22T06:21:15;7.70;99.90
11908;DHT22;6014;47.690;9.130;2023-12-22T06:23:44;7.70;99.90
11908;DHT22;6014;47.690;9.130;2023-12-22T06:26:12;7.70;99.90
11908;DHT22;6014;47.690;9.130;2023-12-22T06:28:40;7.70;99.90
11908;DHT22;6014;47.690;9.130;2023-12-22T06:31:18;7.60;99.90
11908;DHT22;6014;47.690;9.130;2023-12-22T06:33:50;7.70;99.90
11908;DHT22;6014;47.690;9.130;2023-12-22T06:36:19;7.70;99.90
11908;DHT22;6014;47.690;9.130;2023-12-22T06:38:48;7.70;99.90
11908;DHT22;6014;47.690;9.130;2023-12-22T06:41:20;7.70;99.90
11908;DHT22;6014;47.690;9.130;2023-12-22T06:43:54;7.70;99.90
11908;DHT22;6014;47.690;9.130;2023-12-22T06:46:24;7.60;99.90
11908;DHT22;6014;47.690;9.130;2023-12-22T06:48:56;7.70;99.90
11908;DHT22;6014;47.690;9.130;2023-12-22T06:51:25;7.70;99.90
11908;DHT22;6014;47.690;9.130;2023-12-22T06:53:54;7.70;99.90
11908;DHT22;6014;47.690;9.130;2023-12-22T06:56:24;7.70;99.90
11908;DHT22;6014;47.690;9.130;2023-12-22T06:58:56;7.70;99.90
11908;DHT22;6014;47.690;9.130;2023-12-22T07:01:26;7.70;99.90
11908;DHT22;6014;47.690;9.130;2023-12-22T07:03:57;7.80;99.90
11908;DHT22;6014;47.690;9.130;2023-12-22T07:06:30;7.70;99.90
11908;DHT22;6014;47.690;9.130;2023-12-22T07:09:31;7.70;99.90
11908;DHT22;6014;47.690;9.130;2023-12-22T07:12:00;7.70;99.90
11908;DHT22;6014;47.690;9.130;2023-12-22T07:14:30;7.60;99.90
11908;DHT22;6014;47.690;9.130;2023-12-22T07:17:01;7.60;99.90
11908;DHT22;6014;47.690;9.130;2023-12-22T07:19:30;7.60;99.90
11908;DHT22;6014;47.690;9.130;2023-12-22T07:21:58;7.50;99.90
11908;DHT22;6014;47.690;9.130;2023-12-22T07:24:28;7.50;99.90
11908;DHT22;6014;47.690;9.130;2023-12-22T07:26:57;7.40;99.90
11908;DHT22;6014;47.690;9.130;2023-12-22T07:29:25;7.50;99.90
11908;DHT22;6014;47.690;9.130;2023-12-22T07:31:53;7.50;99.90
11908;DHT22;6014;47.690;9.130;2023-12-22T07:34:21;7.40;99.90
11908;DHT22;6014;47.690;9.130;2023-12-22T07:36:54;7.30;99.90
11908;DHT22;6014;47.690;9.130;2023-12-22T07:39:35;7.40;99.90
11908;DHT22;6014;47.690;9.130;2023-12-22T07:42:04;7.30;99.90
11908;DHT22;6014;47.690;9.130;2023-12-22T07:44:33;7.30;99.90
11908;DHT22;6014;47.690;9.130;2023-12-22T07:47:02;7.30;99.90
11908;DHT22;6014;47.690;9.130;2023-12-22T07:49:30;7.30;99.90
11908;DHT22;6014;47.690;9.130;2023-12-22T07:52:00;7.30;99.90
11908;DHT22;6014;47.690;9.130;2023-12-22T07:54:30;7.40;99.90
11908;DHT22;6014;47.690;9.130;2023-12-22T07:56:58;7.40;99.90
11908;DHT22;6014;47.690;9.130;2023-12-22T07:59:26;7.40;99.90
11908;DHT22;6014;47.690;9.130;2023-12-22T08:02:09;7.50;99.90
11908;DHT22;6014;47.690;9.130;2023-12-22T08:04:38;7.50;99.90
11908;DHT22;6014;47.690;9.130;2023-12-22T08:07:07;7.60;99.90
11908;DHT22;6014;47.690;9.130;2023-12-22T08:09:35;7.60;99.90
11908;DHT22;6014;47.690;9.130;2023-12-22T08:12:04;7.60;99.90
11908;DHT22;6014;47.690;9.130;2023-12-22T08:14:33;7.60;99.90
11908;DHT22;6014;47.690;9.130;2023-12-22T08:17:01;7.60;99.90
11908;DHT22;6014;47.690;9.130;2023-12-22T08:19:30;7.70;99.90
11908;DHT22;6014;47.690;9.130;2023-12-22T08:21:59;7.70;99.90
11908;DHT22;6014;47.690;9.130;2023-12-22T08:24:33;7.70;99.90
11908;DHT22;6014;47.690;9.130;2023-12-22T08:27:01;7.80;99.90
11908;DHT22;6014;47.690;9.130;2023-12-22T08:29:29;7.80;99.90
11908;DHT22;6014;47.690;9.130;2023-12-22T08:31:59;7.80;99.90
11908;DHT22;6014;47.690;9.130;2023-12-22T08:34:28;7.80;99.90
11908;DHT22;6014;47.690;9.130;2023-12-22T08:36:56;7.90;99.90
11908;DHT22;6014;47.690;9.130;2023-12-22T08:39:25;7.90;99.90
11908;DHT22;6014;47.690;9.130;2023-12-22T08:41:55;7.90;99.90
11908;DHT22;6014;47.690;9.130;2023-12-22T08:44:23;7.90;99.90
11908;DHT22;6014;47.690;9.130;2023-12-22T08:46:51;7.80;99.90
11908;DHT22;6014;47.690;9.130;2023-12-22T08:49:19;7.80;99.90
11908;DHT22;6014;47.690;9.130;2023-12-22T08:51:48;7.90;99.90
11908;DHT22;6014;47.690;9.130;2023-12-22T08:54:17;7.80;99.90
11908;DHT22;6014;47.690;9.130;2023-12-22T08:56:45;7.90;99.90
11908;DHT22;6014;47.690;9.130;2023-12-22T08:59:15;7.90;99.90
11908;DHT22;6014;47.690;9.130;2023-12-22T09:01:43;7.90;99.90
11908;DHT22;6014;47.690;9.130;2023-12-22T09:04:11;7.90;99.90
11908;DHT22;6014;47.690;9.130;2023-12-22T09:06:48;7.90;99.90
11908;DHT22;6014;47.690;9.130;2023-12-22T09:09:16;8.00;99.90
11908;DHT22;6014;47.690;9.130;2023-12-22T09:11:44;7.90;99.90
11908;DHT22;6014;47.690;9.130;2023-12-22T09:14:12;7.90;99.90
11908;DHT22;6014;47.690;9.130;2023-12-22T09:16:43;7.90;99.90
11908;DHT22;6014;47.690;9.130;2023-12-22T09:19:12;8.00;99.90
11908;DHT22;6014;47.690;9.130;2023-12-22T09:21:40;7.90;99.90
11908;DHT22;6014;47.690;9.130;2023-12-22T09:24:11;8.00;99.90
11908;DHT22;6014;47.690;9.130;2023-12-22T09:26:40;8.00;99.90
11908;DHT22;6014;47.690;9.130;2023-12-22T09:29:08;8.00;99.90
11908;DHT22;6014;47.690;9.130;2023-12-22T09:31:43;8.00;99.90
11908;DHT22;6014;47.690;9.130;2023-12-22T09:34:12;8.00;99.90
11908;DHT22;6014;47.690;9.130;2023-12-22T09:36:41;8.00;99.90
11908;DHT22;6014;47.690;9.130;2023-12-22T09:39:09;7.90;99.90
11908;DHT22;6014;47.690;9.130;2023-12-22T09:41:44;8.00;99.90
11908;DHT22;6014;47.690;9.130;2023-12-22T09:44:22;8.00;99.90
11908;DHT22;6014;47.690;9.130;2023-12-22T09:46:54;8.10;99.90
11908;DHT22;6014;47.690;9.130;2023-12-22T09:49:25;8.10;99.90
11908;DHT22;6014;47.690;9.130;2023-12-22T09:51:54;8.20;99.90
11908;DHT22;6014;47.690;9.130;2023-12-22T09:54:23;8.10;99.90
11908;DHT22;6014;47.690;9.130;2023-12-22T09:56:53;8.20;99.90
11908;DHT22;6014;47.690;9.130;2023-12-22T09:59:22;8.20;99.90
11908;DHT22;6014;47.690;9.130;2023-12-22T10:01:55;8.30;99.90
11908;DHT22;6014;47.690;9.130;2023-12-22T10:04:23;8.40;99.90
11908;DHT22;6014;47.690;9.130;2023-12-22T10:06:53;8.30;99.90
11908;DHT22;6014;47.690;9.130;2023-12-22T10:09:27;8.30;99.90
11908;DHT22;6014;47.690;9.130;2023-12-22T10:11:56;8.40;99.90
11908;DHT22;6014;47.690;9.130;2023-12-22T10:14:26;8.40;99.90
11908;DHT22;6014;47.690;9.130;2023-12-22T10:16:56;8.40;99.90
11908;DHT22;6014;47.690;9.130;2023-12-22T10:19:24;8.40;99.90
11908;DHT22;6014;47.690;9.130;2023-12-22T10:21:53;8.50;99.90
11908;DHT22;6014;47.690;9.130;2023-12-22T10:24:40;8.50;99.90
11908;DHT22;6014;47.690;9.130;2023-12-22T10:27:15;8.50;99.90
11908;DHT22;6014;47.690;9.130;2023-12-22T10:29:49;8.50;99.90
11908;DHT22;6014;47.690;9.130;2023-12-22T10:32:19;8.50;99.90
11908;DHT22;6014;47.690;9.130;2023-12-22T10:34:48;8.50;99.90
11908;DHT22;6014;47.690;9.130;2023-12-22T10:37:20;8.40;99.90
11908;DHT22;6014;47.690;9.130;2023-12-22T10:39:52;8.40;99.90
11908;DHT22;6014;47.690;9.130;2023-12-22T10:42:21;8.50;99.90
11908;DHT22;6014;47.690;9.130;2023-12-22T10:44:49;8.40;99.90
11908;DHT22;6014;47.690;9.130;2023-12-22T10:47:20;8.40;99.90
11908;DHT22;6014;47.690;9.130;2023-12-22T10:49:49;8.40;99.90
11908;DHT22;6014;47.690;9.130;2023-12-22T10:52:18;8.40;99.90
11908;DHT22;6014;47.690;9.130;2023-12-22T10:54:48;8.40;99.90
11908;DHT22;6014;47.690;9.130;2023-12-22T10:57:17;8.40;99.90
11908;DHT22;6014;47.690;9.130;2023-12-22T10:59:47;8.40;99.90
11908;DHT22;6014;47.690;9.130;2023-12-22T11:02:28;8.50;99.90
11908;DHT22;6014;47.690;9.130;2023-12-22T11:05:04;8.50;99.90
11908;DHT22;6014;47.690;9.130;2023-12-22T11:07:34;8.50;99.90
11908;DHT22;6014;47.690;9.130;2023-12-22T11:10:05;8.50;99.90
11908;DHT22;6014;47.690;9.130;2023-12-22T11:12:42;8.60;99.90
11908;DHT22;6014;47.690;9.130;2023-12-22T11:15:12;8.60;99.90
11908;DHT22;6014;47.690;9.130;2023-12-22T11:17:42;8.60;99.90
11908;DHT22;6014;47.690;9.130;2023-12-22T11:20:12;8.60;99.90
11908;DHT22;6014;47.690;9.130;2023-12-22T11:22:42;8.60;99.90
11908;DHT22;6014;47.690;9.130;2023-12-22T11:25:11;8.70;99.90
11908;DHT22;6014;47.690;9.130;2023-12-22T11:27:43;8.60;99.90
11908;DHT22;6014;47.690;9.130;2023-12-22T11:30:16;8.70;99.90
11908;DHT22;6014;47.690;9.130;2023-12-22T11:32:49;8.70;99.90
11908;DHT22;6014;47.690;9.130;2023-12-22T11:35:18;8.60;99.90
11908;DHT22;6014;47.690;9.130;2023-12-22T11:37:47;8.60;99.90
11908;DHT22;6014;47.690;9.130;2023-12-22T11:40:18;8.70;99.90
11908;DHT22;6014;47.690;9.130;2023-12-22T11:42:49;8.60;99.90
11908;DHT22;6014;47.690;9.130;2023-12-22T11:45:18;8.70;99.90
11908;DHT22;6014;47.690;9.130;2023-12-22T11:47:51;8.70;99.90
11908;DHT22;6014;47.690;9.130;2023-12-22T11:50:28;8.70;99.90
11908;DHT22;6014;47.690;9.130;2023-12-22T11:53:17;8.60;99.90
11908;DHT22;6014;47.690;9.130;2023-12-22T11:56:00;8.60;99.90
11908;DHT22;6014;47.690;9.130;2023-12-22T11:58:37;8.60;99.90
11908;DHT22;6014;47.690;9.130;2023-12-22T12:01:07;8.50;99.90
11908;DHT22;6014;47.690;9.130;2023-12-22T12:03:41;8.30;99.90
11908;DHT22;6014;47.690;9.130;2023-12-22T12:09:03;8.00;99.90
11908;DHT22;6014;47.690;9.130;2023-12-22T12:14:49;7.70;99.90
11908;DHT22;6014;47.690;9.130;2023-12-22T12:17:21;7.60;99.90
11908;DHT22;6014;47.690;9.130;2023-12-22T12:19:51;7.50;99.90
11908;DHT22;6014;47.690;9.130;2023-12-22T12:22:19;7.50;99.90
11908;DHT22;6014;47.690;9.130;2023-12-22T12:24:52;7.40;99.90
11908;DHT22;6014;47.690;9.130;2023-12-22T12:27:20;7.30;99.90
11908;DHT22;6014;47.690;9.130;2023-12-22T12:29:49;7.20;99.90
11908;DHT22;6014;47.690;9.130;2023-12-22T12:32:18;7.20;99.90
11908;DHT22;6014;47.690;9.130;2023-12-22T12:35:06;7.10;99.90
11908;DHT22;6014;47.690;9.130;2023-12-22T12:37:35;7.10;99.90
11908;DHT22;6014;47.690;9.130;2023-12-22T12:40:07;7.00;99.90
11908;DHT22;6014;47.690;9.130;2023-12-22T12:42:36;7.00;99.90
11908;DHT22;6014;47.690;9.130;2023-12-22T12:45:07;7.00;99.90
11908;DHT22;6014;47.690;9.130;2023-12-22T12:47:43;7.00;99.90
11908;DHT22;6014;47.690;9.130;2023-12-22T12:50:12;6.90;99.90
11908;DHT22;6014;47.690;9.130;2023-12-22T12:52:41;6.90;99.90
11908;DHT22;6014;47.690;9.130;2023-12-22T12:55:09;6.90;99.90
11908;DHT22;6014;47.690;9.130;2023-12-22T12:57:39;6.90;99.90
11908;DHT22;6014;47.690;9.130;2023-12-22T13:00:09;6.90;99.90
11908;DHT22;6014;47.690;9.130;2023-12-22T13:02:38;6.90;99.90
11908;DHT22;6014;47.690;9.130;2023-12-22T13:05:07;6.90;99.90
11908;DHT22;6014;47.690;9.130;2023-12-22T13:07:39;6.90;99.90
11908;DHT22;6014;47.690;9.130;2023-12-22T13:10:21;6.90;99.90
11908;DHT22;6014;47.690;9.130;2023-12-22T13:12:50;7.00;99.90
11908;DHT22;6014;47.690;9.130;2023-12-22T13:15:21;7.00;99.90
11908;DHT22;6014;47.690;9.130;2023-12-22T13:17:49;7.00;99.90
11908;DHT22;6014;47.690;9.130;2023-12-22T13:20:18;7.00;99.90
11908;DHT22;6014;47.690;9.130;2023-12-22T13:22:48;7.10;99.90
11908;DHT22;6014;47.690;9.130;2023-12-22T13:25:17;7.10;99.90
11908;DHT22;6014;47.690;9.130;2023-12-22T13:27:45;7.20;99.90
11908;DHT22;6014;47.690;9.130;2023-12-22T13:30:15;7.30;99.90
11908;DHT22;6014;47.690;9.130;2023-12-22T13:32:47;7.30;99.90
11908;DHT22;6014;47.690;9.130;2023-12-22T13:35:15;7.20;99.90
11908;DHT22;6014;47.690;9.130;2023-12-22T13:37:44;7.30;99.90
11908;DHT22;6014;47.690;9.130;2023-12-22T13:40:14;7.40;99.90
11908;DHT22;6014;47.690;9.130;2023-12-22T13:42:54;7.40;99.90
11908;DHT22;6014;47.690;9.130;2023-12-22T13:45:22;7.40;99.90
11908;DHT22;6014;47.690;9.130;2023-12-22T13:47:51;7.40;99.90
11908;DHT22;6014;47.690;9.130;2023-12-22T13:50:20;7.40;99.90
11908;DHT22;6014;47.690;9.130;2023-12-22T13:52:50;7.50;99.90
11908;DHT22;6014;47.690;9.130;2023-12-22T13:55:21;7.40;99.90
11908;DHT22;6014;47.690;9.130;2023-12-22T13:57:59;7.50;99.90
11908;DHT22;6014;47.690;9.130;2023-12-22T14:00:28;7.50;99.90
11908;DHT22;6014;47.690;9.130;2023-12-22T14:02:58;7.50;99.90
11908;DHT22;6014;47.690;9.130;2023-12-22T14:05:28;7.60;99.90
11908;DHT22;6014;47.690;9.130;2023-12-22T14:08:01;7.50;99.90
11908;DHT22;6014;47.690;9.130;2023-12-22T14:10:31;7.60;99.90
11908;DHT22;6014;47.690;9.130;2023-12-22T14:12:59;7.70;99.90
11908;DHT22;6014;47.690;9.130;2023-12-22T14:15:29;7.70;99.90
11908;DHT22;6014;47.690;9.130;2023-12-22T14:18:18;7.70;99.90
11908;DHT22;6014;47.690;9.130;2023-12-22T14:20:46;7.70;99.90
11908;DHT22;6014;47.690;9.130;2023-12-22T14:23:14;7.80;99.90
11908;DHT22;6014;47.690;9.130;2023-12-22T14:25:45;7.80;99.90
11908;DHT22;6014;47.690;9.130;2023-12-22T14:28:13;7.80;99.90
11908;DHT22;6014;47.690;9.130;2023-12-22T14:30:41;7.90;99.90
11908;DHT22;6014;47.690;9.130;2023-12-22T14:33:10;8.10;99.90
11908;DHT22;6014;47.690;9.130;2023-12-22T14:35:39;8.00;99.90
11908;DHT22;6014;47.690;9.130;2023-12-22T14:38:06;8.20;99.90
11908;DHT22;6014;47.690;9.130;2023-12-22T14:40:34;8.20;99.90
11908;DHT22;6014;47.690;9.130;2023-12-22T14:43:04;8.20;99.90
11908;DHT22;6014;47.690;9.130;2023-12-22T14:45:32;8.20;99.90
11908;DHT22;6014;47.690;9.130;2023-12-22T14:48:01;8.20;99.90
11908;DHT22;6014;47.690;9.130;2023-12-22T14:50:29;8.20;99.90
11908;DHT22;6014;47.690;9.130;2023-12-22T14:52:57;8.20;99.90
11908;DHT22;6014;47.690;9.130;2023-12-22T14:55:25;8.20;99.90
11908;DHT22;6014;47.690;9.130;2023-12-22T14:57:54;8.00;99.90
11908;DHT22;6014;47.690;9.130;2023-12-22T15:00:24;7.90;99.90
11908;DHT22;6014;47.690;9.130;2023-12-22T15:02:53;7.90;99.90
11908;DHT22;6014;47.690;9.130;2023-12-22T15:05:21;7.90;99.90
11908;DHT22;6014;47.690;9.130;2023-12-22T15:07:50;7.90;99.90
11908;DHT22;6014;47.690;9.130;2023-12-22T15:10:19;7.90;99.90
11908;DHT22;6014;47.690;9.130;2023-12-22T15:12:47;7.90;99.90
11908;DHT22;6014;47.690;9.130;2023-12-22T15:15:16;8.00;99.90
11908;DHT22;6014;47.690;9.130;2023-12-22T15:17:46;8.10;99.90
11908;DHT22;6014;47.690;9.130;2023-12-22T15:20:16;8.10;99.90
11908;DHT22;6014;47.690;9.130;2023-12-22T15:22:45;8.10;99.90
11908;DHT22;6014;47.690;9.130;2023-12-22T15:25:14;8.10;99.90
11908;DHT22;6014;47.690;9.130;2023-12-22T15:27:42;8.20;99.90
11908;DHT22;6014;47.690;9.130;2023-12-22T15:30:10;8.20;99.90
11908;DHT22;6014;47.690;9.130;2023-12-22T15:32:39;8.20;99.90
11908;DHT22;6014;47.690;9.130;2023-12-22T15:35:09;8.10;99.90
11908;DHT22;6014;47.690;9.130;2023-12-22T15:37:38;8.20;99.90
11908;DHT22;6014;47.690;9.130;2023-12-22T15:40:16;8.30;99.90
11908;DHT22;6014;47.690;9.130;2023-12-22T15:42:46;8.30;99.90
11908;DHT22;6014;47.690;9.130;2023-12-22T15:45:22;8.40;99.90
11908;DHT22;6014;47.690;9.130;2023-12-22T15:47:50;8.40;99.90
11908;DHT22;6014;47.690;9.130;2023-12-22T15:50:21;8.50;99.90
11908;DHT22;6014;47.690;9.130;2023-12-22T15:52:49;8.40;99.90
11908;DHT22;6014;47.690;9.130;2023-12-22T15:55:18;8.50;99.90
11908;DHT22;6014;47.690;9.130;2023-12-22T15:57:46;8.50;99.90
11908;DHT22;6014;47.690;9.130;2023-12-22T16:00:15;8.40;99.90
11908;DHT22;6014;47.690;9.130;2023-12-22T16:02:45;8.50;99.90
11908;DHT22;6014;47.690;9.130;2023-12-22T16:05:14;8.60;99.90
11908;DHT22;6014;47.690;9.130;2023-12-22T16:07:43;8.70;99.90
11908;DHT22;6014;47.690;9.130;2023-12-22T16:10:12;8.80;99.90
11908;DHT22;6014;47.690;9.130;2023-12-22T16:12:40;8.70;99.90
11908;DHT22;6014;47.690;9.130;2023-12-22T16:15:10;8.60;99.90
11908;DHT22;6014;47.690;9.130;2023-12-22T16:17:38;8.60;99.90
11908;DHT22;6014;47.690;9.130;2023-12-22T16:20:07;8.50;99.90
11908;DHT22;6014;47.690;9.130;2023-12-22T16:22:38;8.50;99.90
11908;DHT22;6014;47.690;9.130;2023-12-22T16:25:08;8.50;99.90